createdAt,value
2022-10-12T00:02:04.146Z,18.70
2022-10-12T00:04:51.734Z,17.88
2022-10-12T00:07:19.851Z,15.10
2022-10-12T00:09:48.515Z,14.25
2022-10-12T00:12:16.976Z,17.90
2022-10-12T00:14:45.054Z,15.85
2022-10-12T00:17:14.185Z,17.75
2022-10-12T00:19:42.235Z,16.45
2022-10-12T00:22:11.614Z,16.48
2022-10-12T00:24:42.836Z,20.55
2022-10-12T00:27:11.141Z,20.67
2022-10-12T00:29:39.288Z,15.88
2022-10-12T00:32:07.294Z,16.88
2022-10-12T00:34:35.852Z,17.13
2022-10-12T00:37:03.882Z,25.50
2022-10-12T00:39:33.448Z,19.05
2022-10-12T00:42:01.675Z,17.88
2022-10-12T00:44:42.374Z,16.67
2022-10-12T00:47:26.749Z,21.23
2022-10-12T00:50:00.868Z,19.00
2022-10-12T00:52:34.945Z,17.33
2022-10-12T00:55:06.374Z,23.05
2022-10-12T00:57:35.077Z,21.48
2022-10-12T01:00:07.903Z,20.13
2022-10-12T01:02:37.353Z,19.10
2022-10-12T01:05:07.166Z,19.85
2022-10-12T01:07:41.122Z,18.98
2022-10-12T01:10:11.444Z,25.33
2022-10-12T01:12:42.174Z,21.30
2022-10-12T01:15:11.628Z,17.13
2022-10-12T01:17:52.263Z,18.95
2022-10-12T01:20:44.864Z,15.25
2022-10-12T01:23:47.702Z,19.02
2022-10-12T01:26:57.478Z,19.05
2022-10-12T01:29:52.536Z,20.05
2022-10-12T01:32:27.163Z,18.63
2022-10-12T01:35:02.005Z,16.02
2022-10-12T01:37:37.372Z,21.17
2022-10-12T01:40:15.849Z,18.95
2022-10-12T01:42:45.771Z,18.23
2022-10-12T01:45:17.354Z,21.92
2022-10-12T01:47:52.506Z,18.92
2022-10-12T01:50:25.721Z,20.33
2022-10-12T01:53:02.811Z,19.63
2022-10-12T01:55:40.075Z,19.70
2022-10-12T01:58:35.824Z,22.00
2022-10-12T02:01:14.241Z,18.52
2022-10-12T02:03:49.758Z,21.27
2022-10-12T02:06:20.455Z,23.98
2022-10-12T02:08:56.903Z,20.25
2022-10-12T02:11:26.967Z,22.85
2022-10-12T02:13:59.411Z,18.17
2022-10-12T02:16:34.441Z,16.67
2022-10-12T02:19:06.129Z,17.88
2022-10-12T02:21:36.183Z,18.92
2022-10-12T02:24:07.359Z,16.83
2022-10-12T02:26:38.728Z,25.00
2022-10-12T02:29:10.896Z,19.98
2022-10-12T02:31:46.798Z,17.48
2022-10-12T02:34:19.418Z,16.73
2022-10-12T02:36:51.894Z,18.02
2022-10-12T02:39:26.425Z,22.25
2022-10-12T02:41:59.181Z,23.75
2022-10-12T02:44:31.770Z,21.17
2022-10-12T02:47:02.452Z,24.98
2022-10-12T02:49:34.093Z,18.98
2022-10-12T02:52:03.578Z,19.85
2022-10-12T02:54:31.987Z,24.00
2022-10-12T02:57:01.647Z,24.38
2022-10-12T02:59:29.936Z,22.48
2022-10-12T03:01:58.047Z,25.58
2022-10-12T03:04:26.220Z,25.13
2022-10-12T03:06:55.713Z,21.95
2022-10-12T03:09:23.864Z,18.85
2022-10-12T03:11:52.011Z,22.17
2022-10-12T03:14:21.202Z,21.30
2022-10-12T03:16:49.769Z,21.85
2022-10-12T03:19:18.149Z,21.02
2022-10-12T03:21:46.276Z,21.95
2022-10-12T03:24:15.825Z,18.20
2022-10-12T03:26:43.886Z,21.67
2022-10-12T03:29:11.995Z,22.52
2022-10-12T03:31:40.157Z,22.67
2022-10-12T03:34:08.640Z,22.58
2022-10-12T03:36:36.788Z,21.65
2022-10-12T03:39:05.270Z,21.77
2022-10-12T03:41:34.720Z,20.42
2022-10-12T03:44:02.873Z,20.50
2022-10-12T03:46:31.137Z,25.42
2022-10-12T03:48:59.231Z,20.98
2022-10-12T03:51:27.510Z,25.63
2022-10-12T03:53:55.536Z,23.92
2022-10-12T03:56:23.780Z,20.67
2022-10-12T03:58:53.347Z,23.42
2022-10-12T04:01:21.493Z,20.85
2022-10-12T04:03:49.731Z,20.80
2022-10-12T04:06:17.971Z,20.77
2022-10-12T04:08:50.594Z,24.00
2022-10-12T04:11:20.276Z,20.10
2022-10-12T04:13:48.639Z,23.05
2022-10-12T04:16:18.016Z,24.02
2022-10-12T04:18:46.255Z,26.55
2022-10-12T04:21:16.223Z,29.30
2022-10-12T04:23:44.789Z,27.05
2022-10-12T04:26:12.891Z,28.92
2022-10-12T04:29:07.214Z,24.27
2022-10-12T04:31:36.655Z,24.02
2022-10-12T04:34:04.675Z,23.90
2022-10-12T04:36:41.790Z,24.98
2022-10-12T04:39:09.966Z,25.38
2022-10-12T04:41:39.590Z,27.25
2022-10-12T04:44:08.350Z,24.48
2022-10-12T04:46:37.773Z,33.00
2022-10-12T04:49:05.836Z,30.75
2022-10-12T04:51:33.997Z,34.45
2022-10-12T04:54:02.063Z,29.05
2022-10-12T04:56:30.263Z,32.10
2022-10-12T04:58:58.354Z,31.17
2022-10-12T05:01:28.671Z,31.90
2022-10-12T05:03:58.234Z,29.70
2022-10-12T05:06:26.359Z,31.30
2022-10-12T05:08:54.479Z,32.67
2022-10-12T05:11:22.587Z,36.45
2022-10-12T05:13:50.839Z,39.45
2022-10-12T05:16:18.984Z,33.25
2022-10-12T05:18:47.053Z,33.95
2022-10-12T05:21:16.898Z,28.10
2022-10-12T05:23:45.008Z,27.80
2022-10-12T05:26:13.114Z,29.50
2022-10-12T05:28:41.518Z,30.95
2022-10-12T05:31:09.876Z,36.38
2022-10-12T05:33:37.970Z,31.50
2022-10-12T05:36:06.505Z,30.27
2022-10-12T05:38:36.509Z,31.83
2022-10-12T05:41:04.695Z,30.35
2022-10-12T05:43:32.992Z,24.42
2022-10-12T05:46:01.371Z,28.63
2022-10-12T05:48:29.523Z,24.23
2022-10-12T05:50:57.632Z,26.02
2022-10-12T05:53:25.835Z,22.98
2022-10-12T05:55:57.057Z,21.90
2022-10-12T05:58:26.251Z,21.75
2022-10-12T06:00:54.753Z,24.42
2022-10-12T06:03:26.150Z,23.92
2022-10-12T06:05:54.562Z,26.83
2022-10-12T06:08:22.670Z,20.80
2022-10-12T06:10:52.358Z,23.38
2022-10-12T06:13:22.105Z,26.05
2022-10-12T06:15:50.778Z,28.20
2022-10-12T06:18:19.279Z,26.63
2022-10-12T06:20:49.387Z,23.60
2022-10-12T06:23:17.477Z,27.80
2022-10-12T06:25:48.024Z,27.13
2022-10-12T06:28:16.479Z,31.15
2022-10-12T06:30:46.081Z,33.85
2022-10-12T06:33:14.180Z,30.08
2022-10-12T06:35:42.237Z,28.40
2022-10-12T06:38:10.356Z,31.30
2022-10-12T06:40:38.718Z,32.03
2022-10-12T06:43:06.875Z,27.17
2022-10-12T06:45:35.371Z,25.98
2022-10-12T06:48:31.606Z,30.88
2022-10-12T06:50:59.737Z,27.38
2022-10-12T06:53:28.870Z,35.85
2022-10-12T06:55:56.978Z,28.83
2022-10-12T06:58:25.441Z,28.90
2022-10-12T07:00:53.659Z,30.50
2022-10-12T07:03:21.929Z,30.38
2022-10-12T07:05:51.371Z,34.70
2022-10-12T07:08:19.476Z,30.73
2022-10-12T07:10:47.724Z,27.88
2022-10-12T07:13:15.981Z,27.40
2022-10-12T07:15:50.418Z,31.63
2022-10-12T07:18:18.540Z,31.85
2022-10-12T07:20:55.141Z,28.58
2022-10-12T07:23:23.284Z,29.10
2022-10-12T07:25:52.180Z,27.10
2022-10-12T07:28:21.901Z,25.95
2022-10-12T07:30:51.027Z,23.75
2022-10-12T07:33:19.352Z,26.38
2022-10-12T07:36:13.285Z,25.77
2022-10-12T07:38:45.385Z,28.75
2022-10-12T07:41:14.605Z,25.38
2022-10-12T07:43:43.965Z,29.52
2022-10-12T07:46:12.897Z,29.00
2022-10-12T07:48:47.196Z,30.80
2022-10-12T07:51:34.478Z,36.22
2022-10-12T07:54:02.555Z,35.03
2022-10-12T07:56:31.031Z,34.67
2022-10-12T07:58:59.481Z,38.97
2022-10-12T08:01:30.387Z,36.10
2022-10-12T08:04:01.427Z,36.75
2022-10-12T08:06:31.835Z,41.40
2022-10-12T08:09:02.832Z,31.27
2022-10-12T08:11:31.091Z,38.15
2022-10-12T08:13:59.195Z,31.80
2022-10-12T08:16:27.548Z,33.35
2022-10-12T08:18:55.743Z,34.88
2022-10-12T08:21:24.107Z,29.88
2022-10-12T08:23:52.279Z,30.90
2022-10-12T08:26:21.772Z,26.15
2022-10-12T08:28:49.839Z,24.48
2022-10-12T08:31:19.461Z,25.10
2022-10-12T08:33:47.771Z,29.42
2022-10-12T08:36:17.133Z,34.33
2022-10-12T08:38:48.602Z,25.65
2022-10-12T08:41:41.487Z,25.38
2022-10-12T08:44:42.807Z,25.63
2022-10-12T08:47:17.027Z,29.17
2022-10-12T08:49:49.897Z,27.83
2022-10-12T08:52:28.676Z,26.45
2022-10-12T08:55:29.988Z,28.85
2022-10-12T08:57:59.825Z,25.38
2022-10-12T09:00:40.196Z,23.05
2022-10-12T09:03:19.475Z,29.98
2022-10-12T09:05:55.438Z,24.27
2022-10-12T09:08:35.443Z,29.80
2022-10-12T09:11:51.574Z,25.30
2022-10-12T09:14:25.894Z,26.92
2022-10-12T09:16:56.800Z,33.47
2022-10-12T09:19:30.834Z,35.17
2022-10-12T09:21:59.300Z,34.03
2022-10-12T09:24:32.311Z,31.90
2022-10-12T09:27:01.609Z,27.40
2022-10-12T09:29:32.682Z,33.42
2022-10-12T09:32:22.205Z,32.22
2022-10-12T09:34:51.068Z,26.75
2022-10-12T09:37:21.805Z,27.40
2022-10-12T09:40:00.219Z,25.88
2022-10-12T09:42:28.379Z,35.28
2022-10-12T09:45:03.805Z,44.35
2022-10-12T09:47:34.359Z,33.90
2022-10-12T09:50:05.821Z,28.23
2022-10-12T09:52:43.981Z,28.42
2022-10-12T09:55:25.214Z,25.55
2022-10-12T09:57:56.640Z,34.75
2022-10-12T10:00:29.171Z,28.52
2022-10-12T10:02:58.673Z,34.50
2022-10-12T10:05:28.675Z,26.17
2022-10-12T10:08:18.444Z,32.53
2022-10-12T10:10:51.005Z,24.70
2022-10-12T10:13:20.934Z,21.98
2022-10-12T10:15:53.505Z,20.17
2022-10-12T10:18:26.961Z,19.65
2022-10-12T10:20:58.141Z,22.50
2022-10-12T10:23:28.294Z,25.50
2022-10-12T10:25:58.706Z,28.02
2022-10-12T10:28:30.584Z,24.50
2022-10-12T10:31:03.241Z,17.33
2022-10-12T10:33:32.738Z,20.70
2022-10-12T10:36:13.961Z,17.05
2022-10-12T10:38:56.746Z,24.88
2022-10-12T10:41:28.565Z,23.45
2022-10-12T10:43:56.956Z,20.77
2022-10-12T10:46:47.501Z,19.92
2022-10-12T10:49:26.979Z,16.60
2022-10-12T10:51:58.602Z,16.77
2022-10-12T10:54:30.593Z,14.80
2022-10-12T10:57:03.053Z,14.25
2022-10-12T10:59:42.062Z,14.23
2022-10-12T11:02:23.073Z,13.77
2022-10-12T11:04:54.609Z,19.33
2022-10-12T11:07:28.829Z,23.30
2022-10-12T11:10:00.427Z,15.48
2022-10-12T11:12:32.357Z,20.23
2022-10-12T11:15:09.183Z,19.73
2022-10-12T11:17:43.626Z,21.35
2022-10-12T11:20:35.659Z,14.77
2022-10-12T11:23:11.878Z,17.08
2022-10-12T11:25:49.197Z,19.08
2022-10-12T11:28:18.145Z,17.75
2022-10-12T11:30:50.559Z,16.33
2022-10-12T11:33:24.279Z,15.10
2022-10-12T11:35:54.334Z,14.80
2022-10-12T11:38:30.138Z,18.30
2022-10-12T11:41:31.123Z,18.48
2022-10-12T11:43:57.125Z,13.75
2022-10-12T11:46:38.226Z,17.85
2022-10-12T11:49:15.617Z,13.13
2022-10-12T11:51:49.080Z,17.27
2022-10-12T11:54:26.090Z,21.63
2022-10-12T11:56:59.216Z,15.40
2022-10-12T11:59:35.799Z,18.35
2022-10-12T12:02:13.108Z,19.27
2022-10-12T12:04:45.908Z,13.15
2022-10-12T12:07:41.024Z,12.43
2022-10-12T12:10:45.809Z,12.40
2022-10-12T12:13:24.079Z,12.25
2022-10-12T12:16:34.441Z,14.13
2022-10-12T12:19:16.054Z,18.75
2022-10-12T12:22:24.574Z,13.50
2022-10-12T12:25:04.288Z,14.00
2022-10-12T12:27:37.428Z,16.33
2022-10-12T12:30:22.006Z,17.73
2022-10-12T12:32:53.677Z,13.82
2022-10-12T12:35:25.914Z,12.13
2022-10-12T12:38:08.803Z,11.82
2022-10-12T12:40:40.068Z,11.73
2022-10-12T12:44:01.406Z,21.25
2022-10-12T12:50:01.396Z,15.80
2022-10-12T12:52:32.975Z,14.27
2022-10-12T12:55:23.309Z,15.68
2022-10-12T12:58:14.799Z,14.75
2022-10-12T13:00:55.476Z,16.77
2022-10-12T13:03:50.630Z,15.95
2022-10-12T13:07:12.704Z,11.52
2022-10-12T13:10:03.222Z,13.85
2022-10-12T13:12:50.206Z,19.60
2022-10-12T13:15:34.398Z,11.88
2022-10-12T13:18:28.580Z,15.85
2022-10-12T13:21:07.955Z,12.40
2022-10-12T13:23:36.772Z,12.75
2022-10-12T13:26:09.568Z,13.13
2022-10-12T13:28:43.602Z,12.43
2022-10-12T13:31:20.355Z,9.77
2022-10-12T13:33:57.279Z,21.40
2022-10-12T13:36:28.471Z,14.10
2022-10-12T13:39:07.970Z,12.68
2022-10-12T13:41:36.779Z,14.43
2022-10-12T13:44:06.998Z,19.23
2022-10-12T13:46:42.345Z,15.05
2022-10-12T13:49:15.373Z,15.27
2022-10-12T13:51:46.718Z,15.35
2022-10-12T13:54:21.595Z,20.90
2022-10-12T13:56:54.104Z,15.13
2022-10-12T13:59:25.682Z,11.48
2022-10-12T14:02:00.603Z,11.10
2022-10-12T14:04:31.057Z,12.18
2022-10-12T14:07:03.960Z,18.23
2022-10-12T14:09:42.573Z,15.98
2022-10-12T14:12:12.795Z,14.77
2022-10-12T14:14:44.312Z,13.55
2022-10-12T14:17:17.570Z,13.38
2022-10-12T14:19:47.961Z,17.55
2022-10-12T14:22:22.609Z,14.18
2022-10-12T14:24:51.842Z,15.57
2022-10-12T14:27:24.220Z,9.60
2022-10-12T14:29:57.409Z,9.90
2022-10-12T14:32:42.472Z,10.23
2022-10-12T14:35:28.203Z,13.02
2022-10-12T14:37:57.710Z,15.32
2022-10-12T14:40:33.041Z,20.65
2022-10-12T14:43:08.017Z,17.73
2022-10-12T14:45:36.935Z,10.95
2022-10-12T14:48:12.791Z,17.33
2022-10-12T14:50:40.907Z,12.68
2022-10-12T14:53:12.862Z,8.95
2022-10-12T14:55:41.728Z,10.02
2022-10-12T14:58:15.832Z,14.80
2022-10-12T15:00:45.202Z,16.33
2022-10-12T15:03:14.800Z,12.90
2022-10-12T15:05:42.982Z,13.15
2022-10-12T15:08:11.108Z,10.95
2022-10-12T15:10:39.571Z,11.63
2022-10-12T15:13:19.784Z,8.13
2022-10-12T15:15:49.393Z,10.30
2022-10-12T15:18:19.103Z,10.23
2022-10-12T15:20:49.829Z,13.55
2022-10-12T15:23:18.192Z,12.82
2022-10-12T15:25:51.062Z,7.75
2022-10-12T15:28:25.219Z,9.68
2022-10-12T15:33:43.843Z,11.93
2022-10-12T15:36:12.131Z,10.43
2022-10-12T15:38:40.432Z,13.50
2022-10-12T15:41:17.148Z,9.55
2022-10-12T15:44:12.565Z,8.18
2022-10-12T15:46:41.334Z,7.40
2022-10-12T15:49:10.954Z,7.95
2022-10-12T15:51:42.160Z,8.85
2022-10-12T15:54:11.082Z,9.75
2022-10-12T15:56:39.436Z,9.90
2022-10-12T15:59:08.007Z,9.70
2022-10-12T16:01:37.771Z,7.85
2022-10-12T16:04:07.555Z,9.25
2022-10-12T16:06:37.228Z,8.25
2022-10-12T16:09:05.330Z,10.43
2022-10-12T16:11:33.663Z,6.95
2022-10-12T16:14:01.878Z,8.95
2022-10-12T16:16:41.814Z,10.68
2022-10-12T16:19:09.915Z,7.60
2022-10-12T16:21:39.475Z,7.90
2022-10-12T16:24:08.846Z,7.38
2022-10-12T16:26:40.310Z,11.30
2022-10-12T16:29:11.233Z,6.85
2022-10-12T16:31:40.415Z,7.40
2022-10-12T16:34:14.537Z,9.70
2022-10-12T16:36:44.037Z,6.93
2022-10-12T16:39:12.491Z,10.48
2022-10-12T16:41:40.604Z,7.82
2022-10-12T16:44:08.748Z,7.55
2022-10-12T16:46:38.023Z,7.05
2022-10-12T16:49:06.423Z,7.95
2022-10-12T16:51:34.806Z,7.28
2022-10-12T16:54:04.852Z,8.82
2022-10-12T16:56:37.090Z,7.30
2022-10-12T16:59:07.695Z,7.68
2022-10-12T17:01:35.904Z,10.15
2022-10-12T17:04:04.079Z,14.70
2022-10-12T17:06:32.377Z,17.20
2022-10-12T17:09:01.113Z,15.57
2022-10-12T17:11:30.745Z,10.60
2022-10-12T17:18:42.461Z,9.18
2022-10-12T17:21:13.496Z,8.02
2022-10-12T17:23:44.148Z,7.00
2022-10-12T17:26:12.600Z,7.10
2022-10-12T17:28:42.384Z,9.52
2022-10-12T17:31:11.900Z,10.07
2022-10-12T17:33:40.616Z,7.80
2022-10-12T17:36:15.143Z,7.15
2022-10-12T17:38:46.623Z,12.50
2022-10-12T17:41:20.524Z,12.02
2022-10-12T17:43:55.496Z,9.70
2022-10-12T17:46:28.631Z,11.10
2022-10-12T17:49:00.408Z,9.30
2022-10-12T17:51:35.173Z,7.78
2022-10-12T17:54:11.117Z,10.23
2022-10-12T17:56:46.026Z,12.82
2022-10-12T17:59:25.163Z,10.63
2022-10-12T18:02:05.152Z,13.07
2022-10-12T18:04:44.340Z,12.68
2022-10-12T18:07:17.664Z,10.65
2022-10-12T18:09:50.692Z,9.75
2022-10-12T18:12:25.699Z,13.32
2022-10-12T18:14:59.179Z,12.02
2022-10-12T18:17:34.621Z,10.30
2022-10-12T18:20:08.109Z,13.00
2022-10-12T18:22:43.503Z,12.68
2022-10-12T18:25:20.324Z,8.90
2022-10-12T18:27:55.420Z,12.75
2022-10-12T18:30:29.429Z,13.05
2022-10-12T18:33:04.077Z,10.98
2022-10-12T18:35:41.121Z,15.90
2022-10-12T18:38:17.939Z,17.02
2022-10-12T18:40:49.649Z,14.35
2022-10-12T18:43:23.330Z,13.73
2022-10-12T18:45:59.903Z,13.27
2022-10-12T18:48:32.620Z,12.48
2022-10-12T18:51:06.756Z,13.65
2022-10-12T18:53:39.050Z,11.38
2022-10-12T18:56:14.484Z,16.27
2022-10-12T18:58:45.579Z,12.43
2022-10-12T19:01:22.002Z,10.43
2022-10-12T19:03:53.189Z,11.50
2022-10-12T19:06:26.048Z,14.73
2022-10-12T19:08:58.275Z,15.07
2022-10-12T19:11:31.347Z,17.08
2022-10-12T19:14:04.193Z,11.80
2022-10-12T19:16:39.887Z,11.85
2022-10-12T19:19:21.459Z,22.08
2022-10-12T19:21:54.799Z,17.25
2022-10-12T19:24:28.262Z,16.58
2022-10-12T19:26:59.843Z,11.30
2022-10-12T19:29:32.385Z,12.38
2022-10-12T19:32:05.852Z,14.20
2022-10-12T19:34:38.369Z,18.80
2022-10-12T19:37:09.785Z,16.73
2022-10-12T19:39:46.690Z,14.55
2022-10-12T19:42:17.393Z,13.82
2022-10-12T19:44:52.946Z,10.85
2022-10-12T19:47:26.921Z,13.88
2022-10-12T19:49:57.274Z,12.20
2022-10-12T19:52:28.473Z,12.70
2022-10-12T19:55:00.167Z,16.42
2022-10-12T19:57:34.306Z,15.27
2022-10-12T20:00:09.573Z,15.73
2022-10-12T20:02:44.191Z,11.70
2022-10-12T20:05:14.864Z,14.65
2022-10-12T20:07:45.619Z,11.13
2022-10-12T20:10:17.986Z,13.65
2022-10-12T20:12:48.110Z,13.65
2022-10-12T20:15:16.475Z,14.60
2022-10-12T20:17:45.920Z,16.95
2022-10-12T20:20:14.042Z,16.15
2022-10-12T20:22:42.099Z,23.33
2022-10-12T20:25:10.307Z,20.15
2022-10-12T20:27:38.373Z,19.48
2022-10-12T20:30:07.752Z,20.60
2022-10-12T20:32:36.093Z,19.33
2022-10-12T20:35:06.735Z,19.33
2022-10-12T20:37:35.622Z,20.70
2022-10-12T20:40:04.068Z,32.33
2022-10-12T20:42:32.490Z,22.27
2022-10-12T20:45:00.459Z,21.77
2022-10-12T20:47:28.539Z,25.10
2022-10-12T20:49:56.651Z,23.35
2022-10-12T20:52:26.314Z,18.40
2022-10-12T20:54:54.338Z,23.98
2022-10-12T20:57:22.384Z,20.00
2022-10-12T20:59:50.464Z,23.60
2022-10-12T21:02:19.452Z,21.73
2022-10-12T21:04:49.720Z,21.98
2022-10-12T21:07:19.194Z,33.67
2022-10-12T21:09:48.677Z,22.42
2022-10-12T21:12:17.103Z,22.60
2022-10-12T21:14:45.718Z,21.98
2022-10-12T21:17:13.738Z,22.73
2022-10-12T21:19:41.805Z,23.67
2022-10-12T21:22:09.927Z,29.10
2022-10-12T21:24:37.933Z,25.77
2022-10-12T21:27:18.759Z,25.23
2022-10-12T21:29:46.825Z,25.67
2022-10-12T21:32:15.124Z,20.52
2022-10-12T21:34:43.217Z,22.90
2022-10-12T21:37:11.684Z,23.17
2022-10-12T21:39:39.659Z,22.38
2022-10-12T21:42:07.911Z,19.77
2022-10-12T21:44:37.495Z,22.40
2022-10-12T21:47:05.944Z,26.90
2022-10-12T21:49:36.879Z,19.65
2022-10-12T21:52:05.266Z,27.58
2022-10-12T21:54:33.335Z,22.08
2022-10-12T21:57:01.456Z,24.88
2022-10-12T21:59:29.995Z,26.13
2022-10-12T22:01:59.661Z,22.98
2022-10-12T22:04:27.731Z,21.05
2022-10-12T22:07:00.317Z,21.98
2022-10-12T22:09:28.869Z,21.88
2022-10-12T22:11:56.832Z,23.15
2022-10-12T22:14:24.841Z,23.90
2022-10-12T22:16:53.050Z,23.60
2022-10-12T22:19:22.766Z,23.92
2022-10-12T22:21:52.996Z,21.60
2022-10-12T22:24:21.570Z,21.88
2022-10-12T22:26:49.808Z,21.67
2022-10-12T22:29:20.628Z,18.35
2022-10-12T22:31:48.646Z,22.33
2022-10-12T22:34:16.799Z,22.90
2022-10-12T22:36:46.284Z,24.10
2022-10-12T22:39:14.549Z,23.33
2022-10-12T22:41:45.462Z,28.35
2022-10-12T22:44:13.461Z,23.88
2022-10-12T22:46:41.579Z,25.33
2022-10-12T22:49:09.616Z,25.35
2022-10-12T22:51:40.212Z,31.27
2022-10-12T22:54:11.095Z,27.48
2022-10-12T22:56:42.692Z,23.90
2022-10-12T22:59:14.803Z,24.73
2022-10-12T23:01:42.816Z,23.55
2022-10-12T23:04:11.091Z,27.15
2022-10-12T23:06:39.189Z,38.15
2022-10-12T23:09:07.281Z,24.70
2022-10-12T23:11:37.268Z,27.55
2022-10-12T23:14:05.208Z,29.90
2022-10-12T23:16:34.002Z,24.52
2022-10-12T23:19:04.881Z,29.92
2022-10-12T23:21:34.537Z,28.73
2022-10-12T23:24:05.074Z,23.20
2022-10-12T23:26:33.655Z,30.85
2022-10-12T23:29:03.380Z,31.25
2022-10-12T23:31:32.171Z,31.13
2022-10-12T23:34:03.524Z,29.80
2022-10-12T23:36:32.772Z,31.75
2022-10-12T23:39:01.172Z,31.60
2022-10-12T23:41:29.338Z,29.77
2022-10-12T23:43:57.918Z,33.38
2022-10-12T23:46:27.354Z,32.13
2022-10-12T23:48:58.639Z,34.30
2022-10-12T23:51:26.911Z,39.33
2022-10-12T23:53:55.236Z,32.20
2022-10-12T23:56:23.939Z,32.15
2022-10-12T23:58:52.690Z,30.13
